Terminal Aerodrome Forecast
Issued by NWS Omaha/Valley, NE

Home | Current Version | Previous Version | Text Only | Print | Product List | Glossary On
Versions: 1 2 3 4 5 6 7 8 9 10 11 12 13 14 15 16 17 18 19 20 21 22 23 24 25 26 27 28 29 30 31 32 33 34 35 36
000
FTUS43 KOAX 302322
TAFOMA
TAF
KOMA 302322Z 3100/3124 17007KT P6SM BKN250
     FM310200 18008KT P6SM OVC100
     FM310600 20006KT P6SM OVC040 PROB30 3114/3118 5SM -RA OVC025
     FM311800 14006KT P6SM -RA OVC015 PROB30 3120/3124 12008KT 5SM
      -RASN OVC012=

USA.gov is the U.S. government's official web portal to all federal, state and local government web resources and services.